createdAt,value
2019-04-26T00:01:02.779Z,99626.45
2019-04-26T00:03:41.632Z,99625.66
2019-04-26T00:06:12.411Z,99616.48
2019-04-26T00:08:42.617Z,99597.66
2019-04-26T00:11:29.475Z,99599.20
2019-04-26T00:14:16.702Z,99606.38
2019-04-26T00:17:07.598Z,99591.23
2019-04-26T00:19:37.051Z,99577.03
2019-04-26T00:22:06.261Z,99583.30
2019-04-26T00:24:35.592Z,99586.34
2019-04-26T00:27:04.697Z,99589.02
2019-04-26T00:29:33.790Z,99602.63
2019-04-26T00:32:03.086Z,99620.79
2019-04-26T00:34:32.184Z,99622.05
2019-04-26T00:37:03.112Z,99628.45
2019-04-26T00:39:32.411Z,99630.92
2019-04-26T00:42:01.586Z,99640.00
2019-04-26T00:44:30.771Z,99634.44
2019-04-26T00:47:01.012Z,99631.84
2019-04-26T00:49:42.778Z,99641.80
2019-04-26T00:52:02.330Z,99655.86
2019-04-26T00:54:31.757Z,99658.04
2019-04-26T00:57:01.998Z,99655.36
2019-04-26T00:59:32.088Z,99667.95
2019-04-26T01:02:08.223Z,99675.56
2019-04-26T01:04:37.363Z,99677.83
2019-04-26T01:07:06.582Z,99684.02
2019-04-26T01:09:35.770Z,99685.88
2019-04-26T01:12:04.946Z,99679.48
2019-04-26T01:14:34.192Z,99670.02
2019-04-26T01:17:03.404Z,99671.66
2019-04-26T01:19:32.530Z,99671.58
2019-04-26T01:22:05.387Z,99670.44
2019-04-26T01:24:36.229Z,99677.55
2019-04-26T01:27:05.500Z,99685.80
2019-04-26T01:29:34.923Z,99683.30
2019-04-26T01:32:07.321Z,99676.41
2019-04-26T01:34:37.639Z,99658.63
2019-04-26T01:37:06.894Z,99670.16
2019-04-26T01:39:38.738Z,99683.73
2019-04-26T01:42:14.634Z,99683.13
2019-04-26T01:44:56.882Z,99682.71
2019-04-26T01:47:26.317Z,99692.69
2019-04-26T01:49:55.640Z,99694.32
2019-04-26T01:52:25.738Z,99686.08
2019-04-26T01:54:54.727Z,99694.72
2019-04-26T01:57:25.463Z,99693.09
2019-04-26T01:59:58.109Z,99689.97
2019-04-26T02:02:44.333Z,99707.05
2019-04-26T02:05:18.227Z,99702.41
2019-04-26T02:07:47.779Z,99699.52
2019-04-26T02:10:19.017Z,99701.06
2019-04-26T02:12:49.554Z,99701.16
2019-04-26T02:15:20.858Z,99709.28
2019-04-26T02:17:51.012Z,99711.45
2019-04-26T02:21:26.388Z,99703.06
2019-04-26T02:24:03.612Z,99687.35
2019-04-26T02:26:39.719Z,99676.64
2019-04-26T02:29:12.933Z,99690.05
2019-04-26T02:31:43.820Z,99687.58
2019-04-26T02:34:13.667Z,99682.19
2019-04-26T02:36:57.227Z,99681.20
2019-04-26T02:39:28.071Z,99676.44
2019-04-26T02:42:00.467Z,99669.02
2019-04-26T02:44:39.125Z,99679.03
2019-04-26T02:47:42.404Z,99690.17
2019-04-26T02:50:17.671Z,99683.69
2019-04-26T02:52:59.997Z,99693.88
2019-04-26T02:55:59.971Z,99694.46
2019-04-26T02:58:33.784Z,99686.05
2019-04-26T03:01:04.375Z,99689.05
2019-04-26T03:03:34.418Z,99687.97
2019-04-26T03:06:04.897Z,99684.06
2019-04-26T03:08:37.151Z,99686.05
2019-04-26T03:11:10.936Z,99679.99
2019-04-26T03:13:59.659Z,99691.57
2019-04-26T03:16:42.894Z,99690.64
2019-04-26T03:19:24.558Z,99690.13
2019-04-26T03:22:18.195Z,99686.22
2019-04-26T03:25:02.884Z,99690.91
2019-04-26T03:27:45.133Z,99684.70
2019-04-26T03:30:23.669Z,99683.70
2019-04-26T03:34:04.953Z,99691.57
2019-04-26T03:36:54.889Z,99688.39
2019-04-26T03:39:37.180Z,99686.53
2019-04-26T03:42:39.870Z,99690.24
2019-04-26T03:46:00.171Z,99702.98
2019-04-26T03:48:53.842Z,99704.98
2019-04-26T03:51:56.623Z,99703.64
2019-04-26T03:54:27.468Z,99718.27
2019-04-26T03:57:14.180Z,99725.80
2019-04-26T04:00:02.004Z,99720.11
2019-04-26T04:03:07.991Z,99721.23
2019-04-26T04:05:47.683Z,99728.89
2019-04-26T04:08:22.118Z,99738.28
2019-04-26T04:10:57.593Z,99751.52
2019-04-26T04:13:43.223Z,99761.53
2019-04-26T04:16:40.625Z,99760.84
2019-04-26T04:19:38.527Z,99762.11
2019-04-26T04:22:11.167Z,99765.09
2019-04-26T04:24:52.362Z,99763.23
2019-04-26T04:27:54.312Z,99758.59
2019-04-26T04:31:05.029Z,99772.03
2019-04-26T04:34:08.943Z,99775.50
2019-04-26T04:36:44.525Z,99769.55
2019-04-26T04:39:22.055Z,99777.12
2019-04-26T04:42:21.705Z,99778.31
2019-04-26T04:45:31.972Z,99785.52
2019-04-26T04:48:31.548Z,99791.73
2019-04-26T04:51:42.725Z,99802.55
2019-04-26T04:54:20.222Z,99819.48
2019-04-26T04:57:03.979Z,99841.16
2019-04-26T04:59:54.027Z,99848.62
2019-04-26T05:02:49.503Z,99854.10
2019-04-26T05:06:07.338Z,99865.58
2019-04-26T05:09:12.958Z,99869.09
2019-04-26T05:12:22.326Z,99867.12
2019-04-26T05:15:07.064Z,99856.08
2019-04-26T05:17:53.753Z,99850.41
2019-04-26T05:20:47.146Z,99849.08
2019-04-26T05:23:47.134Z,99854.85
2019-04-26T05:27:10.607Z,99848.16
2019-04-26T05:30:29.340Z,99852.83
2019-04-26T05:33:24.874Z,99868.70
2019-04-26T05:36:18.958Z,99893.55
2019-04-26T05:39:10.545Z,99885.50
2019-04-26T05:43:00.912Z,99873.67
2019-04-26T05:46:21.703Z,99874.98
2019-04-26T05:49:28.376Z,99880.66
2019-04-26T05:52:52.048Z,99892.72
2019-04-26T05:56:11.554Z,99896.22
2019-04-26T05:59:09.281Z,99897.98
2019-04-26T06:02:03.644Z,99902.42
2019-04-26T06:05:01.525Z,99911.81
2019-04-26T06:07:47.286Z,99923.76
2019-04-26T06:10:53.167Z,99908.40
2019-04-26T06:14:02.005Z,99913.43
2019-04-26T06:16:48.599Z,99931.59
2019-04-26T06:19:29.184Z,99943.36
2019-04-26T06:22:19.825Z,99951.59
2019-04-26T06:25:27.402Z,99947.14
2019-04-26T06:28:44.839Z,99957.06
2019-04-26T06:31:28.789Z,99940.55
2019-04-26T06:34:05.774Z,99952.63
2019-04-26T06:36:47.283Z,99949.95
2019-04-26T06:39:35.922Z,99948.28
2019-04-26T06:43:02.999Z,99955.70
2019-04-26T06:46:22.894Z,99945.52
2019-04-26T06:49:15.913Z,99953.35
2019-04-26T06:51:49.768Z,99967.67
2019-04-26T06:54:35.594Z,99959.93
2019-04-26T06:57:59.433Z,99960.24
2019-04-26T07:00:36.409Z,99955.42
2019-04-26T07:03:20.229Z,99950.98
2019-04-26T07:05:53.262Z,99953.66
2019-04-26T07:08:40.634Z,99953.34
2019-04-26T07:12:03.702Z,99959.31
2019-04-26T07:15:02.232Z,99963.97
2019-04-26T07:17:47.378Z,99974.59
2019-04-26T07:20:24.794Z,99978.61
2019-04-26T07:23:31.285Z,99986.02
2019-04-26T07:26:52.341Z,99984.58
2019-04-26T07:30:03.550Z,99974.67
2019-04-26T07:33:08.963Z,99979.73
2019-04-26T07:35:48.324Z,99989.43
2019-04-26T07:39:19.476Z,99995.93
2019-04-26T07:42:24.901Z,100007.79
2019-04-26T07:45:26.233Z,100010.88
2019-04-26T07:48:41.509Z,100018.29
2019-04-26T07:51:45.859Z,100017.97
2019-04-26T07:54:45.377Z,100021.19
2019-04-26T07:57:52.577Z,100024.58
2019-04-26T08:00:26.469Z,100029.43
2019-04-26T08:03:18.616Z,100026.64
2019-04-26T08:06:05.769Z,100022.20
2019-04-26T08:08:44.297Z,100023.23
2019-04-26T08:11:19.407Z,100031.91
2019-04-26T08:14:15.717Z,100020.14
2019-04-26T08:17:27.183Z,100026.34
2019-04-26T08:20:32.112Z,100030.89
2019-04-26T08:23:09.045Z,100037.69
2019-04-26T08:25:35.701Z,100033.77
2019-04-26T08:28:07.265Z,100051.59
2019-04-26T08:30:44.891Z,100054.20
2019-04-26T08:33:16.138Z,100051.92
2019-04-26T08:35:49.008Z,100049.26
2019-04-26T08:38:22.305Z,100045.35
2019-04-26T08:40:48.411Z,100036.27
2019-04-26T08:43:45.885Z,100028.22
2019-04-26T08:46:32.356Z,100044.42
2019-04-26T08:49:28.423Z,100046.48
2019-04-26T08:51:59.918Z,100046.17
2019-04-26T08:54:33.224Z,100054.00
2019-04-26T08:57:06.865Z,100055.25
2019-04-26T08:59:39.187Z,100062.23
2019-04-26T09:02:22.046Z,100063.19
2019-04-26T09:05:10.334Z,100064.83
2019-04-26T09:07:42.336Z,100075.45
2019-04-26T09:10:13.104Z,100061.13
2019-04-26T09:12:43.717Z,100060.50
2019-04-26T09:15:14.526Z,100065.95
2019-04-26T09:17:43.839Z,100083.52
2019-04-26T09:20:13.418Z,100087.55
2019-04-26T09:23:10.685Z,100087.55
2019-04-26T09:25:45.299Z,100091.86
2019-04-26T09:28:19.651Z,100102.41
2019-04-26T09:30:57.034Z,100111.80
2019-04-26T09:33:35.922Z,100110.44
2019-04-26T09:36:05.574Z,100110.95
2019-04-26T09:38:34.651Z,100113.02
2019-04-26T09:41:03.698Z,100103.45
2019-04-26T09:43:54.974Z,100091.57
2019-04-26T09:46:40.317Z,100096.94
2019-04-26T09:49:26.943Z,100095.05
2019-04-26T09:51:56.510Z,100102.30
2019-04-26T09:54:25.588Z,100097.02
2019-04-26T09:56:54.632Z,100092.06
2019-04-26T09:59:23.829Z,100084.94
2019-04-26T10:01:55.440Z,100082.97
2019-04-26T10:04:24.152Z,100077.28
2019-04-26T10:06:53.465Z,100070.03
2019-04-26T10:09:24.184Z,100071.66
2019-04-26T10:11:56.413Z,100067.72
2019-04-26T10:14:33.333Z,100076.30
2019-04-26T10:17:11.511Z,100076.90
2019-04-26T10:19:46.555Z,100081.34
2019-04-26T10:22:15.977Z,100084.63
2019-04-26T10:24:45.383Z,100090.70
2019-04-26T10:27:14.443Z,100080.30
2019-04-26T10:29:43.739Z,100083.55
2019-04-26T10:32:13.222Z,100084.27
2019-04-26T10:34:42.742Z,100086.58
2019-04-26T10:37:14.357Z,100083.69
2019-04-26T10:39:43.616Z,100088.78
2019-04-26T10:42:12.814Z,100093.73
2019-04-26T10:44:42.041Z,100096.21
2019-04-26T10:47:11.296Z,100096.41
2019-04-26T10:49:45.276Z,100098.98
2019-04-26T10:52:34.893Z,100099.97
2019-04-26T10:55:23.590Z,100100.47
2019-04-26T10:57:54.821Z,100098.36
2019-04-26T11:00:30.291Z,100103.18
2019-04-26T11:03:00.122Z,100098.94
2019-04-26T11:05:30.342Z,100096.64
2019-04-26T11:07:59.423Z,100101.03
2019-04-26T11:10:29.796Z,100098.94
2019-04-26T11:12:59.097Z,100102.80
2019-04-26T11:15:29.055Z,100102.50
2019-04-26T11:17:58.698Z,100109.09
2019-04-26T11:20:27.775Z,100107.33
2019-04-26T11:22:57.027Z,100114.11
2019-04-26T11:25:28.195Z,100115.05
2019-04-26T11:27:56.960Z,100117.52
2019-04-26T11:30:26.039Z,100117.23
2019-04-26T11:32:55.259Z,100119.78
2019-04-26T11:35:24.486Z,100118.31
2019-04-26T11:37:55.202Z,100116.52
2019-04-26T11:40:24.593Z,100124.01
2019-04-26T11:42:53.679Z,100118.22
2019-04-26T11:45:22.811Z,100118.56
2019-04-26T11:47:56.110Z,100121.81
2019-04-26T11:50:22.826Z,100119.03
2019-04-26T11:52:51.853Z,100122.52
2019-04-26T11:55:20.906Z,100125.63
2019-04-26T11:57:49.929Z,100128.02
2019-04-26T12:00:29.970Z,100123.02
2019-04-26T12:02:59.074Z,100130.81
2019-04-26T12:05:46.769Z,100133.72
2019-04-26T12:08:19.361Z,100136.42
2019-04-26T12:10:48.420Z,100132.30
2019-04-26T12:13:17.496Z,100129.31
2019-04-26T12:15:46.613Z,100131.74
2019-04-26T12:18:15.989Z,100123.23
2019-04-26T12:20:45.041Z,100127.57
2019-04-26T12:23:20.330Z,100120.71
2019-04-26T12:25:48.106Z,100117.98
2019-04-26T12:28:15.872Z,100119.61
2019-04-26T12:30:44.915Z,100124.59
2019-04-26T12:33:14.415Z,100124.08
2019-04-26T12:35:43.461Z,100125.01
2019-04-26T12:38:12.639Z,100130.79
2019-04-26T12:40:42.253Z,100139.08
2019-04-26T12:43:15.489Z,100135.34
2019-04-26T12:45:54.825Z,100134.95
2019-04-26T12:48:24.247Z,100146.13
2019-04-26T12:50:53.354Z,100145.81
2019-04-26T12:53:26.861Z,100157.27
2019-04-26T12:55:58.055Z,100172.66
2019-04-26T12:58:24.811Z,100170.83
2019-04-26T13:00:54.698Z,100168.27
2019-04-26T13:03:24.992Z,100158.19
2019-04-26T13:05:58.228Z,100162.87
2019-04-26T13:08:25.748Z,100174.56
2019-04-26T13:11:25.278Z,100175.55
2019-04-26T13:14:01.190Z,100180.14
2019-04-26T13:17:01.211Z,100178.31
2019-04-26T13:19:29.528Z,100168.81
2019-04-26T13:21:58.615Z,100174.57
2019-04-26T13:24:27.890Z,100182.99
2019-04-26T13:26:57.476Z,100176.19
2019-04-26T13:29:27.254Z,100178.09
2019-04-26T13:31:57.435Z,100173.77
2019-04-26T13:34:26.588Z,100178.39
2019-04-26T13:36:59.145Z,100193.45
2019-04-26T13:39:26.587Z,100191.75
2019-04-26T13:42:02.981Z,100198.36
2019-04-26T13:44:44.312Z,100187.73
2019-04-26T13:47:50.744Z,100182.43
2019-04-26T13:50:30.229Z,100192.66
2019-04-26T13:52:59.303Z,100181.06
2019-04-26T13:55:29.455Z,100179.93
2019-04-26T13:57:59.869Z,100175.03
2019-04-26T14:00:31.780Z,100174.65
2019-04-26T14:03:00.963Z,100180.88
2019-04-26T14:05:29.995Z,100179.45
2019-04-26T14:07:59.259Z,100176.22
2019-04-26T14:10:28.523Z,100191.27
2019-04-26T14:12:57.600Z,100187.14
2019-04-26T14:15:26.778Z,100188.34
2019-04-26T14:17:56.067Z,100186.16
2019-04-26T14:20:26.666Z,100179.91
2019-04-26T14:23:15.415Z,100185.35
2019-04-26T14:25:55.660Z,100179.34
2019-04-26T14:28:25.278Z,100175.13
2019-04-26T14:30:55.535Z,100176.20
2019-04-26T14:33:27.005Z,100179.20
2019-04-26T14:35:55.757Z,100176.89
2019-04-26T14:38:27.982Z,100171.39
2019-04-26T14:41:03.883Z,100177.20
2019-04-26T14:43:39.973Z,100172.73
2019-04-26T14:45:57.557Z,100169.35
2019-04-26T14:48:35.749Z,100166.36
2019-04-26T14:51:07.964Z,100168.66
2019-04-26T14:53:32.161Z,100165.05
2019-04-26T14:55:59.443Z,100164.90
2019-04-26T14:58:30.112Z,100159.76
2019-04-26T15:01:03.183Z,100161.30
2019-04-26T15:04:00.615Z,100153.07
2019-04-26T15:06:35.206Z,100151.13
2019-04-26T15:09:17.013Z,100154.34
2019-04-26T15:11:37.772Z,100155.81
2019-04-26T15:14:06.965Z,100161.09
2019-04-26T15:16:41.466Z,100155.02
2019-04-26T15:19:12.493Z,100153.52
2019-04-26T15:21:42.229Z,100159.48
2019-04-26T15:24:12.820Z,100159.84
2019-04-26T15:26:42.643Z,100159.92
2019-04-26T15:29:12.693Z,100164.19
2019-04-26T15:31:42.220Z,100170.69
2019-04-26T15:34:12.166Z,100168.59
2019-04-26T15:36:43.411Z,100171.20
2019-04-26T15:39:34.624Z,100169.81
2019-04-26T15:42:14.734Z,100167.23
2019-04-26T15:45:03.468Z,100167.34
2019-04-26T15:48:06.981Z,100168.84
2019-04-26T15:50:50.301Z,100165.13
2019-04-26T15:53:17.300Z,100169.58
2019-04-26T15:55:46.433Z,100166.14
2019-04-26T15:58:16.895Z,100165.84
2019-04-26T16:00:46.105Z,100164.34
2019-04-26T16:03:15.916Z,100165.11
2019-04-26T16:05:46.196Z,100162.33
2019-04-26T16:08:15.970Z,100163.89
2019-04-26T16:10:47.670Z,100167.77
2019-04-26T16:13:21.039Z,100174.65
2019-04-26T16:15:50.938Z,100173.08
2019-04-26T16:18:20.259Z,100166.41
2019-04-26T16:20:49.386Z,100172.54
2019-04-26T16:23:19.245Z,100170.75
2019-04-26T16:25:48.868Z,100171.34
2019-04-26T16:28:49.339Z,100173.56
2019-04-26T16:31:46.003Z,100175.06
2019-04-26T16:34:16.268Z,100173.46
2019-04-26T16:36:46.003Z,100172.95
2019-04-26T16:39:15.843Z,100172.80
2019-04-26T16:41:44.930Z,100174.33
2019-04-26T16:44:13.976Z,100175.89
2019-04-26T16:46:43.928Z,100174.98
2019-04-26T16:49:14.085Z,100178.81
2019-04-26T16:51:43.727Z,100188.20
2019-04-26T16:54:20.865Z,100187.77
2019-04-26T16:56:43.969Z,100184.38
2019-04-26T16:59:14.384Z,100189.69
2019-04-26T17:01:47.425Z,100197.16
2019-04-26T17:04:20.046Z,100193.11
2019-04-26T17:06:46.455Z,100191.58
2019-04-26T17:09:15.873Z,100189.03
2019-04-26T17:11:45.042Z,100191.51
2019-04-26T17:14:14.265Z,100192.34
2019-04-26T17:16:44.413Z,100187.95
2019-04-26T17:19:13.876Z,100191.25
2019-04-26T17:21:56.507Z,100183.17
2019-04-26T17:24:43.838Z,100187.73
2019-04-26T17:27:14.455Z,100188.23
2019-04-26T17:29:42.825Z,100179.58
2019-04-26T17:32:15.521Z,100183.55
2019-04-26T17:34:43.413Z,100189.37
2019-04-26T17:37:17.077Z,100185.25
2019-04-26T17:39:47.566Z,100183.29
2019-04-26T17:42:14.571Z,100190.86
2019-04-26T17:44:44.159Z,100193.07
2019-04-26T17:47:13.181Z,100188.95
2019-04-26T17:49:44.044Z,100187.61
2019-04-26T17:52:13.472Z,100185.68
2019-04-26T17:54:47.551Z,100192.30
2019-04-26T17:57:14.843Z,100189.82
2019-04-26T17:59:47.662Z,100186.22
2019-04-26T18:02:25.862Z,100187.70
2019-04-26T18:04:58.094Z,100195.19
2019-04-26T18:07:37.673Z,100194.27
2019-04-26T18:09:52.437Z,100193.14
2019-04-26T18:12:21.457Z,100197.28
2019-04-26T18:14:50.614Z,100188.08
2019-04-26T18:17:41.472Z,100188.73
2019-04-26T18:20:41.452Z,100193.41
2019-04-26T18:23:15.435Z,100195.72
2019-04-26T18:25:45.132Z,100204.44
2019-04-26T18:28:16.057Z,100204.56
2019-04-26T18:30:47.596Z,100202.40
2019-04-26T18:33:17.458Z,100216.09
2019-04-26T18:35:49.118Z,100206.98
2019-04-26T18:38:18.584Z,100221.06
2019-04-26T18:40:59.965Z,100215.70
2019-04-26T18:43:23.867Z,100218.42
2019-04-26T18:45:51.364Z,100215.11
2019-04-26T18:48:20.838Z,100213.27
2019-04-26T18:50:49.917Z,100215.45
2019-04-26T18:53:39.610Z,100222.39
2019-04-26T18:56:07.633Z,100216.51
2019-04-26T18:58:38.086Z,100220.91
2019-04-26T19:01:08.744Z,100220.40
2019-04-26T19:03:38.100Z,100231.66
2019-04-26T19:06:07.323Z,100233.12
2019-04-26T19:08:45.520Z,100233.44
2019-04-26T19:11:11.552Z,100230.84
2019-04-26T19:13:56.542Z,100231.16
2019-04-26T19:16:46.456Z,100228.77
2019-04-26T19:19:33.043Z,100226.30
2019-04-26T19:22:03.810Z,100226.20
2019-04-26T19:24:33.132Z,100230.53
2019-04-26T19:27:04.156Z,100234.88
2019-04-26T19:29:35.901Z,100235.89
2019-04-26T19:32:04.658Z,100228.45
2019-04-26T19:34:33.698Z,100235.78
2019-04-26T19:37:03.389Z,100229.91
2019-04-26T19:39:35.553Z,100229.39
2019-04-26T19:42:06.017Z,100230.51
2019-04-26T19:44:34.825Z,100228.03
2019-04-26T19:47:17.071Z,100232.66
2019-04-26T19:50:03.178Z,100231.94
2019-04-26T19:52:53.240Z,100229.97
2019-04-26T19:55:56.671Z,100229.73
2019-04-26T19:58:28.375Z,100225.58
2019-04-26T20:00:57.537Z,100228.66
2019-04-26T20:03:26.590Z,100235.07
2019-04-26T20:05:55.948Z,100228.43
2019-04-26T20:08:25.077Z,100235.97
2019-04-26T20:10:54.270Z,100233.49
2019-04-26T20:13:23.369Z,100238.75
2019-04-26T20:15:53.151Z,100236.58
2019-04-26T20:18:23.562Z,100235.38
2019-04-26T20:20:52.807Z,100241.00
2019-04-26T20:23:22.825Z,100240.26
2019-04-26T20:25:53.067Z,100235.03
2019-04-26T20:28:22.917Z,100235.33
2019-04-26T20:31:15.466Z,100238.61
2019-04-26T20:33:47.588Z,100237.57
2019-04-26T20:36:15.478Z,100241.20
2019-04-26T20:38:47.414Z,100242.73
2019-04-26T20:41:15.940Z,100244.62
2019-04-26T20:43:52.381Z,100243.04
2019-04-26T20:46:16.300Z,100247.26
2019-04-26T20:48:45.443Z,100247.55
2019-04-26T20:51:14.739Z,100251.77
2019-04-26T20:53:44.036Z,100251.67
2019-04-26T20:56:18.377Z,100252.28
2019-04-26T20:58:46.978Z,100256.28
2019-04-26T21:01:15.549Z,100259.56
2019-04-26T21:03:46.114Z,100257.28
2019-04-26T21:06:15.329Z,100262.73
2019-04-26T21:08:44.517Z,100261.53
2019-04-26T21:11:13.878Z,100256.48
2019-04-26T21:13:43.309Z,100256.42
2019-04-26T21:16:15.385Z,100262.48
2019-04-26T21:18:44.622Z,100262.32
2019-04-26T21:21:16.261Z,100265.05
2019-04-26T21:23:46.914Z,100257.99
2019-04-26T21:26:46.655Z,100260.42
2019-04-26T21:29:28.736Z,100263.10
2019-04-26T21:32:04.476Z,100263.49
2019-04-26T21:34:35.616Z,100255.80
2019-04-26T21:37:43.106Z,100257.94
2019-04-26T21:40:16.903Z,100259.17
2019-04-26T21:42:46.753Z,100261.23
2019-04-26T21:45:15.753Z,100263.16
2019-04-26T21:47:46.772Z,100265.31
2019-04-26T21:50:15.903Z,100265.20
2019-04-26T21:52:45.686Z,100268.83
2019-04-26T21:55:16.705Z,100265.89
2019-04-26T21:57:45.928Z,100272.98
2019-04-26T22:00:29.156Z,100277.57
2019-04-26T22:03:00.109Z,100275.73
2019-04-26T22:05:29.274Z,100274.27
2019-04-26T22:07:58.374Z,100273.81
2019-04-26T22:10:34.876Z,100269.03
2019-04-26T22:13:06.747Z,100266.36
2019-04-26T22:15:49.640Z,100280.45
2019-04-26T22:18:23.130Z,100277.16
2019-04-26T22:21:14.623Z,100278.77
2019-04-26T22:23:56.560Z,100281.30
2019-04-26T22:26:25.951Z,100278.12
2019-04-26T22:28:55.275Z,100279.77
2019-04-26T22:31:24.334Z,100278.70
2019-04-26T22:33:55.983Z,100281.11
2019-04-26T22:36:27.351Z,100277.25
2019-04-26T22:39:01.622Z,100278.33
2019-04-26T22:41:28.559Z,100281.19
2019-04-26T22:44:05.437Z,100285.66
2019-04-26T22:46:53.760Z,100287.38
2019-04-26T22:49:23.200Z,100290.12
2019-04-26T22:51:52.464Z,100286.23
2019-04-26T22:54:23.050Z,100290.81
2019-04-26T22:56:53.788Z,100289.29
2019-04-26T22:59:23.065Z,100292.34
2019-04-26T23:01:53.588Z,100282.10
2019-04-26T23:04:26.396Z,100284.13
2019-04-26T23:06:56.198Z,100284.01
2019-04-26T23:09:24.703Z,100280.63
2019-04-26T23:12:00.309Z,100279.87
2019-04-26T23:14:48.219Z,100280.55
2019-04-26T23:17:34.939Z,100278.45
2019-04-26T23:20:16.452Z,100272.33
2019-04-26T23:22:45.493Z,100274.23
2019-04-26T23:25:14.706Z,100284.19
2019-04-26T23:27:43.937Z,100278.49
2019-04-26T23:30:14.395Z,100277.72
2019-04-26T23:32:43.551Z,100275.48
2019-04-26T23:35:13.759Z,100274.52
2019-04-26T23:37:42.901Z,100273.44
2019-04-26T23:40:12.187Z,100263.21
2019-04-26T23:42:41.236Z,100271.23
2019-04-26T23:45:12.350Z,100268.59
2019-04-26T23:47:43.839Z,100261.84
2019-04-26T23:50:14.055Z,100270.23
2019-04-26T23:52:43.714Z,100273.66
2019-04-26T23:55:14.725Z,100270.86
2019-04-26T23:57:43.769Z,100267.90
